Time;durP1;ratioP1;P1;durP2;ratioP2;P2;SDS_P1;SDS_P2;PMS_P1;PMS_P2;Temp;Humidity;BMP_temperature;BMP_pressure;BME280_temperature;BME280_humidity;BME280_pressure;Samples;Min_cycle;Max_cycle;Signal;HPM_P1;HPM_P2
2020/12/24 00:00:08;;;;;;;14.73;9.52;;;;;;;8.58;100.00;95678.91;1024292;29;20020;-73
2020/12/24 00:00:39;;;;;;;16.77;10.85;;;;;;;8.52;100.00;95663.69;1024424;29;20070;-72
2020/12/24 00:01:10;;;;;;;15.80;10.57;;;;;;;8.56;100.00;95670.31;1024308;29;20527;-73
2020/12/24 00:01:40;;;;;;;16.92;10.60;;;;;;;8.59;100.00;95675.28;1020389;29;20031;-72
2020/12/24 00:02:11;;;;;;;22.73;11.63;;;;;;;8.62;100.00;95674.91;1020089;29;20028;-73
2020/12/24 00:02:42;;;;;;;15.32;10.48;;;;;;;8.63;100.00;95676.59;1019643;29;20054;-73
2020/12/24 00:03:13;;;;;;;20.50;11.70;;;;;;;8.59;100.00;95681.41;1020359;29;20392;-72
2020/12/24 00:03:44;;;;;;;22.00;11.70;;;;;;;8.57;100.00;95674.59;1020455;29;20028;-72
2020/12/24 00:04:15;;;;;;;24.95;13.30;;;;;;;8.59;100.00;95680.59;1028035;28;20019;-73
2020/12/24 00:04:45;;;;;;;24.25;12.13;;;;;;;8.57;100.00;95680.75;1020404;29;20051;-72
2020/12/24 00:05:16;;;;;;;18.55;11.52;;;;;;;8.59;100.00;95677.94;1024294;29;20042;-73
2020/12/24 00:05:47;;;;;;;19.83;11.55;;;;;;;8.58;100.00;95684.22;1028320;28;20401;-73
2020/12/24 00:06:19;;;;;;;18.85;11.57;;;;;;;8.56;100.00;95687.03;1024078;29;20071;-73
2020/12/24 00:06:49;;;;;;;19.13;12.02;;;;;;;8.57;100.00;95690.50;1020463;29;20472;-72
2020/12/24 00:07:20;;;;;;;20.40;11.52;;;;;;;8.59;100.00;95693.81;1024216;29;20019;-73
2020/12/24 00:07:51;;;;;;;21.08;12.13;;;;;;;8.56;100.00;95691.50;1024738;29;20027;-72
2020/12/24 00:08:22;;;;;;;17.70;11.52;;;;;;;8.61;100.00;95695.28;1020847;29;20038;-71
2020/12/24 00:08:52;;;;;;;18.75;11.02;;;;;;;8.61;100.00;95694.47;1028755;28;20116;-72
2020/12/24 00:09:23;;;;;;;25.70;13.10;;;;;;;8.51;100.00;95699.13;1028344;28;20510;-73
2020/12/24 00:09:54;;;;;;;41.25;16.15;;;;;;;8.39;100.00;95707.38;1024468;29;20007;-73
2020/12/24 00:10:25;;;;;;;50.67;18.00;;;;;;;8.34;100.00;95709.69;1024092;28;20392;-73
2020/12/24 00:10:55;;;;;;;36.95;16.08;;;;;;;8.36;100.00;95706.88;1028296;28;20014;-72
2020/12/24 00:11:26;;;;;;;35.60;16.20;;;;;;;8.40;100.00;95703.75;1028402;28;20015;-73
2020/12/24 00:11:57;;;;;;;38.83;15.73;;;;;;;8.34;100.00;95693.81;1024341;29;20106;-73
2020/12/24 00:12:28;;;;;;;16.13;10.25;;;;;;;8.44;100.00;95705.06;1036185;28;20121;-73
2020/12/24 00:12:58;;;;;;;9.38;6.57;;;;;;;8.40;100.00;95695.81;1024117;29;20023;-72
2020/12/24 00:13:29;;;;;;;9.90;6.20;;;;;;;8.40;100.00;95693.16;1024248;29;20062;-72
2020/12/24 00:14:00;;;;;;;6.43;4.28;;;;;;;8.47;100.00;95699.47;1024307;29;20468;-72
2020/12/24 00:14:31;;;;;;;7.55;5.30;;;;;;;8.47;100.00;95706.56;1024094;29;20090;-73
2020/12/24 00:15:03;;;;;;;6.45;4.65;;;;;;;8.46;100.00;95705.75;1024383;29;20020;-73
2020/12/24 00:15:34;;;;;;;7.45;4.57;;;;;;;8.47;100.00;95704.75;1024235;29;20034;-73
2020/12/24 00:16:05;;;;;;;10.07;5.25;;;;;;;8.48;100.00;95701.13;1028402;28;20019;-72
2020/12/24 00:16:36;;;;;;;9.50;4.32;;;;;;;8.45;100.00;95704.09;1028117;28;20023;-73
2020/12/24 00:17:07;;;;;;;5.68;3.45;;;;;;;8.48;100.00;95701.13;1024226;29;20023;-72
2020/12/24 00:17:37;;;;;;;5.20;3.83;;;;;;;8.47;100.00;95698.63;1024215;29;20304;-72
2020/12/24 00:18:08;;;;;;;6.10;3.83;;;;;;;8.39;100.00;95702.06;1024251;29;20086;-72
2020/12/24 00:18:39;;;;;;;3.90;2.40;;;;;;;8.44;100.00;95701.63;1028243;28;20415;-73
2020/12/24 00:19:10;;;;;;;4.53;2.50;;;;;;;8.42;100.00;95703.56;1028153;28;20105;-72
2020/12/24 00:19:40;;;;;;;3.88;1.95;;;;;;;8.39;100.00;95701.25;1020270;29;20314;-73
2020/12/24 00:20:29;;;;;;;3.30;2.00;;;;;;;8.36;100.00;95697.16;1024359;29;20015;-72
2020/12/24 00:21:00;;;;;;;6.82;2.70;;;;;;;8.44;100.00;95702.44;1020160;29;20107;-73
2020/12/24 00:21:38;;;;;;;3.80;2.30;;;;;;;8.40;100.00;95693.16;1020283;29;20107;-72
2020/12/24 00:22:09;;;;;;;7.80;2.28;;;;;;;8.35;100.00;95678.78;1032156;28;20442;-73
2020/12/24 00:22:40;;;;;;;3.95;2.50;;;;;;;8.48;100.00;95693.19;1024095;29;20023;-74
2020/12/24 00:23:10;;;;;;;4.15;2.83;;;;;;;8.44;100.00;95691.03;1024078;29;20051;-73
2020/12/24 00:23:41;;;;;;;4.35;2.70;;;;;;;8.44;100.00;95697.13;1020254;29;20055;-73
2020/12/24 00:24:14;;;;;;;3.75;2.58;;;;;;;8.42;100.00;95695.63;1020407;29;20019;-72
2020/12/24 00:24:45;;;;;;;4.53;2.25;;;;;;;8.36;100.00;95686.56;1032206;28;20139;-73
2020/12/24 00:25:16;;;;;;;5.00;2.53;;;;;;;8.44;100.00;95694.50;1024072;29;20022;-73
2020/12/24 00:25:47;;;;;;;4.43;2.38;;;;;;;8.41;100.00;95686.88;1024398;29;20440;-73
2020/12/24 00:26:17;;;;;;;3.67;2.22;;;;;;;8.42;100.00;95691.19;1020382;29;20099;-72
2020/12/24 00:26:48;;;;;;;4.10;2.28;;;;;;;8.44;100.00;95697.13;1024517;28;20016;-73
2020/12/24 00:27:19;;;;;;;5.20;2.42;;;;;;;8.44;100.00;95698.97;1028074;28;20018;-73
2020/12/24 00:27:50;;;;;;;3.17;2.15;;;;;;;8.36;100.00;95681.28;1028272;28;20030;-73
2020/12/24 00:28:20;;;;;;;4.60;2.10;;;;;;;8.34;100.00;95675.28;1028270;28;20019;-72
2020/12/24 00:28:51;;;;;;;5.07;2.63;;;;;;;8.39;100.00;95683.56;1024211;29;20023;-73
2020/12/24 00:29:22;;;;;;;4.25;2.40;;;;;;;8.44;100.00;95693.69;1024103;29;20516;-73
2020/12/24 00:29:52;;;;;;;7.32;3.03;;;;;;;8.44;100.00;95686.56;1024211;29;20147;-73
2020/12/24 00:30:23;;;;;;;5.30;2.70;;;;;;;8.37;100.00;95672.31;1024175;29;20047;-73
2020/12/24 00:30:54;;;;;;;3.90;2.58;;;;;;;8.39;100.00;95675.63;1016365;29;20020;-74
2020/12/24 00:31:25;;;;;;;5.53;2.80;;;;;;;8.45;100.00;95682.09;1024169;29;20019;-73
2020/12/24 00:31:55;;;;;;;4.90;2.85;;;;;;;8.42;100.00;95683.25;1024312;29;20537;-74
2020/12/24 00:32:26;;;;;;;4.50;2.90;;;;;;;8.45;100.00;95682.09;1028102;28;20102;-73
2020/12/24 00:32:57;;;;;;;5.03;3.10;;;;;;;8.47;100.00;95683.56;1028148;28;20503;-73
2020/12/24 00:33:27;;;;;;;5.45;3.00;;;;;;;8.44;100.00;95691.84;1024063;29;20023;-73
2020/12/24 00:33:58;;;;;;;7.18;3.42;;;;;;;8.47;100.00;95688.88;1028175;28;20117;-73
2020/12/24 00:34:29;;;;;;;6.75;4.18;;;;;;;8.49;100.00;95686.06;1028095;28;20018;-73
2020/12/24 00:35:00;;;;;;;5.93;3.88;;;;;;;8.47;100.00;95685.41;1024333;29;20046;-73
2020/12/24 00:35:30;;;;;;;5.28;3.75;;;;;;;8.50;100.00;95685.06;1031991;28;20022;-73
2020/12/24 00:36:01;;;;;;;9.00;4.13;;;;;;;8.51;100.00;95685.88;1028185;28;20023;-73
2020/12/24 00:36:32;;;;;;;8.35;4.40;;;;;;;8.48;100.00;95679.94;1024146;29;20027;-73
2020/12/24 00:37:03;;;;;;;7.43;4.85;;;;;;;8.48;100.00;95687.88;1024288;29;20138;-73
2020/12/24 00:37:48;;;;;;;9.23;5.40;;;;;;;8.43;100.00;95676.97;1023982;29;20081;-73
2020/12/24 00:38:19;;;;;;;8.00;5.13;;;;;;;8.48;100.00;95693.19;1024165;29;20023;-73
2020/12/24 00:38:50;;;;;;;7.30;5.07;;;;;;;8.46;100.00;95687.25;1028161;28;20018;-72
2020/12/24 00:39:21;;;;;;;7.25;5.13;;;;;;;8.47;100.00;95688.88;1024151;29;20100;-72
2020/12/24 00:39:51;;;;;;;8.55;5.30;;;;;;;8.49;100.00;95691.34;1032083;28;20042;-73
2020/12/24 00:40:22;;;;;;;8.70;5.82;;;;;;;8.49;100.00;95700.09;1024208;29;20102;-73
2020/12/24 00:40:54;;;;;;;9.18;5.80;;;;;;;8.49;100.00;95692.16;1028140;28;20029;-72
2020/12/24 00:41:25;;;;;;;8.23;5.60;;;;;;;8.46;100.00;95691.69;1028042;28;20114;-73
2020/12/24 00:41:55;;;;;;;9.02;5.47;;;;;;;8.44;100.00;95693.69;1027996;28;20023;-72
2020/12/24 00:42:26;;;;;;;9.32;5.90;;;;;;;8.39;100.00;95691.50;1032203;28;20014;-72
2020/12/24 00:42:57;;;;;;;8.73;6.10;;;;;;;8.48;100.00;95701.13;1028124;28;20019;-73
2020/12/24 00:43:27;;;;;;;8.57;5.53;;;;;;;8.41;100.00;95694.81;1024114;29;20089;-73
2020/12/24 00:43:58;;;;;;;9.88;5.53;;;;;;;8.47;100.00;95699.47;1028128;28;20030;-72
2020/12/24 00:44:29;;;;;;;6.63;4.75;;;;;;;8.45;100.00;95684.75;1024099;29;20090;-73
2020/12/24 00:44:59;;;;;;;7.25;4.93;;;;;;;8.51;100.00;95694.66;1024213;29;20030;-72
2020/12/24 00:45:30;;;;;;;8.25;4.63;;;;;;;8.43;100.00;95676.97;1024143;29;20143;-73
2020/12/24 00:46:01;;;;;;;8.00;4.70;;;;;;;8.54;100.00;95693.50;1020050;29;20024;-73
2020/12/24 00:46:31;;;;;;;7.85;4.90;;;;;;;8.50;100.00;95693.00;1024241;29;20021;-72
2020/12/24 00:47:02;;;;;;;6.00;4.13;;;;;;;8.44;100.00;95688.38;1028237;28;20018;-72
2020/12/24 00:47:34;;;;;;;6.78;4.40;;;;;;;8.49;100.00;95697.47;1024026;29;20019;-73
2020/12/24 00:48:05;;;;;;;6.30;3.85;;;;;;;8.51;100.00;95699.13;1020070;29;20053;-73
2020/12/24 00:48:35;;;;;;;5.78;3.20;;;;;;;8.49;100.00;95694.00;1024195;29;20463;-72
2020/12/24 00:49:06;;;;;;;7.15;3.72;;;;;;;8.44;100.00;95681.25;1020319;29;20028;-73
2020/12/24 00:49:37;;;;;;;5.88;3.47;;;;;;;8.50;100.00;95682.44;1028109;28;20023;-72
2020/12/24 00:50:08;;;;;;;6.20;3.97;;;;;;;8.45;100.00;95687.41;1024113;29;20031;-72
2020/12/24 00:50:38;;;;;;;7.10;3.05;;;;;;;8.44;100.00;95691.03;1028194;28;20011;-72
2020/12/24 00:51:09;;;;;;;4.45;2.83;;;;;;;8.43;100.00;95682.28;1032204;28;20026;-72
2020/12/24 00:51:40;;;;;;;6.32;3.05;;;;;;;8.47;100.00;95686.22;1028195;28;20200;-72
2020/12/24 00:52:11;;;;;;;4.97;2.50;;;;;;;8.40;100.00;95679.94;1023861;29;20043;-73
2020/12/24 00:52:42;;;;;;;3.42;2.10;;;;;;;8.38;100.00;95681.09;1020149;29;20067;-72
2020/12/24 00:53:12;;;;;;;2.95;1.90;;;;;;;8.34;100.00;95675.28;1024181;29;20399;-72
2020/12/24 00:53:43;;;;;;;4.82;2.00;;;;;;;8.34;100.00;95670.00;1024123;29;20126;-73
2020/12/24 00:54:14;;;;;;;4.93;2.30;;;;;;;8.31;100.00;95667.72;1023932;29;20523;-74
2020/12/24 00:54:45;;;;;;;3.00;1.38;;;;;;;8.27;100.00;95667.22;1020174;29;20449;-73
2020/12/24 00:55:15;;;;;;;2.25;1.23;;;;;;;8.35;100.00;95678.78;1020203;29;20396;-72
2020/12/24 00:55:46;;;;;;;2.08;1.30;;;;;;;8.34;100.00;95682.41;1027523;28;20407;-73
2020/12/24 00:56:17;;;;;;;2.15;1.20;;;;;;;8.25;100.00;95671.03;1023923;29;20023;-73
2020/12/24 00:56:47;;;;;;;3.22;1.60;;;;;;;8.33;100.00;95684.25;1027942;28;20451;-73
2020/12/24 00:57:18;;;;;;;3.22;1.20;;;;;;;8.33;100.00;95681.59;1028112;28;20463;-72
2020/12/24 00:57:49;;;;;;;2.70;1.45;;;;;;;8.34;100.00;95683.22;1024054;29;20024;-73
2020/12/24 00:58:20;;;;;;;5.10;1.23;;;;;;;8.22;100.00;95674.00;1028064;28;20022;-73
2020/12/24 00:58:50;;;;;;;2.75;1.45;;;;;;;8.29;100.00;95685.59;1024124;29;20387;-72
2020/12/24 00:59:21;;;;;;;2.78;1.00;;;;;;;8.30;100.00;95682.75;1028252;28;20495;-73
2020/12/24 00:59:52;;;;;;;3.63;1.52;;;;;;;8.26;100.00;95683.28;1028328;28;20459;-72
2020/12/24 01:00:23;;;;;;;2.08;1.27;;;;;;;8.25;100.00;95685.06;1027988;28;20023;-72
2020/12/24 01:00:54;;;;;;;2.55;1.20;;;;;;;8.26;100.00;95688.56;1027947;28;20033;-73
2020/12/24 01:01:24;;;;;;;2.72;1.30;;;;;;;8.23;100.00;95684.41;1024140;28;20106;-72
2020/12/24 01:01:55;;;;;;;1.58;0.80;;;;;;;8.21;100.00;95689.06;1028265;28;20015;-72
2020/12/24 01:02:26;;;;;;;2.03;0.90;;;;;;;8.19;100.00;95674.34;1035763;28;20025;-73
2020/12/24 01:02:57;;;;;;;1.30;1.00;;;;;;;8.22;100.00;95685.44;1027690;28;20023;-72
2020/12/24 01:03:28;;;;;;;1.70;0.85;;;;;;;8.20;100.00;95691.88;1024299;29;20531;-72
2020/12/24 01:03:59;;;;;;;2.08;1.30;;;;;;;8.17;100.00;95686.91;1032093;28;20541;-73
2020/12/24 01:04:29;;;;;;;4.15;1.10;;;;;;;8.18;100.00;95686.75;1027989;28;20018;-73
2020/12/24 01:05:00;;;;;;;1.33;0.70;;;;;;;8.16;100.00;95687.91;1020105;29;20412;-73
2020/12/24 01:05:31;;;;;;;2.45;0.88;;;;;;;8.17;100.00;95685.09;1024120;29;20016;-72
2020/12/24 01:06:03;;;;;;;1.17;0.65;;;;;;;8.14;100.00;95681.97;1024221;29;20062;-72
2020/12/24 01:06:34;;;;;;;1.27;0.80;;;;;;;8.16;100.00;95687.91;1031993;28;20037;-73
2020/12/24 01:07:05;;;;;;;2.25;0.60;;;;;;;8.13;100.00;95678.47;1032040;28;20117;-72
2020/12/24 01:07:35;;;;;;;2.90;0.85;;;;;;;8.12;100.00;95687.44;1028206;28;20015;-72
2020/12/24 01:08:06;;;;;;;1.55;0.73;;;;;;;8.12;100.00;95682.13;1028094;28;20143;-72
2020/12/24 01:08:37;;;;;;;2.92;0.80;;;;;;;8.12;100.00;95677.66;1031957;28;20011;-73
2020/12/24 01:09:08;;;;;;;2.85;0.95;;;;;;;8.05;100.00;95673.22;1024032;29;20126;-72
2020/12/24 01:09:39;;;;;;;1.27;0.70;;;;;;;8.08;100.00;95689.56;1024058;29;20015;-72
2020/12/24 01:10:10;;;;;;;3.28;0.90;;;;;;;8.09;100.00;95693.03;1020173;29;20555;-72
2020/12/24 01:10:41;;;;;;;2.22;0.80;;;;;;;8.08;100.00;95694.88;1028038;28;20011;-73
2020/12/24 01:11:12;;;;;;;2.15;1.00;;;;;;;8.08;100.00;95686.94;1024068;29;20070;-73
2020/12/24 01:11:42;;;;;;;2.22;0.90;;;;;;;8.07;100.00;95682.63;1023999;29;20062;-72
2020/12/24 01:12:13;;;;;;;1.00;0.60;;;;;;;8.08;100.00;95680.78;1024097;29;20027;-74
2020/12/24 01:12:44;;;;;;;0.60;0.43;;;;;;;8.07;100.00;95687.91;1027900;28;20463;-73
2020/12/24 01:13:14;;;;;;;2.10;0.75;;;;;;;8.04;100.00;95675.00;1024069;29;20020;-72
2020/12/24 01:13:45;;;;;;;1.38;0.80;;;;;;;8.07;100.00;95687.09;1024010;29;20022;-73
2020/12/24 01:14:16;;;;;;;1.25;0.73;;;;;;;8.06;100.00;95685.44;1028108;28;20010;-72
2020/12/24 01:14:47;;;;;;;1.25;0.80;;;;;;;8.07;100.00;95695.03;1032094;28;20018;-72
2020/12/24 01:15:18;;;;;;;3.05;1.17;;;;;;;8.04;100.00;95682.13;1027916;28;20363;-73
2020/12/24 01:15:49;;;;;;;3.30;1.00;;;;;;;8.05;100.00;95684.63;1028157;28;20015;-73
2020/12/24 01:16:20;;;;;;;1.90;0.80;;;;;;;8.00;100.00;95680.81;1028072;28;20018;-72
2020/12/24 01:16:50;;;;;;;1.10;0.70;;;;;;;8.02;100.00;95684.94;1023969;29;20015;-72
2020/12/24 01:17:21;;;;;;;2.58;0.80;;;;;;;8.03;100.00;95686.59;1027953;28;20014;-72
2020/12/24 01:17:52;;;;;;;1.10;0.60;;;;;;;8.01;100.00;95691.25;1020121;29;20016;-72
2020/12/24 01:18:23;;;;;;;1.20;0.75;;;;;;;7.98;100.00;95696.03;1024099;29;20019;-72
2020/12/24 01:18:54;;;;;;;2.05;0.80;;;;;;;7.99;100.00;95692.38;1024117;29;20019;-74
2020/12/24 01:19:25;;;;;;;3.35;0.95;;;;;;;8.00;100.00;95686.94;1023822;29;20025;-73
2020/12/24 01:19:55;;;;;;;1.60;0.60;;;;;;;7.92;100.00;95687.78;1020127;29;20019;-72
2020/12/24 01:20:26;;;;;;;1.77;0.93;;;;;;;7.91;100.00;95678.19;1020241;29;20362;-72
2020/12/24 01:20:57;;;;;;;2.53;0.98;;;;;;;7.83;100.00;95659.66;1024048;29;20460;-72
2020/12/24 01:21:28;;;;;;;1.10;0.80;;;;;;;7.99;100.00;95692.38;1023884;29;20476;-72
2020/12/24 01:21:59;;;;;;;3.33;0.80;;;;;;;8.01;100.00;95693.03;1028032;28;20038;-72
2020/12/24 01:22:30;;;;;;;2.28;1.05;;;;;;;8.01;100.00;95691.25;1024000;29;20409;-73
2020/12/24 01:23:03;;;;;;;2.70;0.80;;;;;;;8.01;100.00;95693.88;1024000;29;20027;-73
2020/12/24 01:23:34;;;;;;;2.00;0.80;;;;;;;8.00;100.00;95691.41;1023896;29;20022;-73
2020/12/24 01:24:05;;;;;;;2.55;0.80;;;;;;;7.98;100.00;95691.56;1020053;29;20043;-73
2020/12/24 01:24:35;;;;;;;4.43;0.90;;;;;;;7.98;100.00;95691.56;1028010;28;20019;-72
2020/12/24 01:25:06;;;;;;;1.65;0.90;;;;;;;7.97;100.00;95689.91;1028052;28;20526;-73
2020/12/24 01:25:37;;;;;;;3.53;0.80;;;;;;;7.97;100.00;95687.25;1027823;28;20019;-73
2020/12/24 01:26:08;;;;;;;1.95;0.90;;;;;;;8.00;100.00;95689.56;1024021;29;20067;-72
2020/12/24 01:26:46;;;;;;;1.23;0.77;;;;;;;7.99;100.00;95684.44;1027933;28;20038;-73
2020/12/24 01:27:17;;;;;;;1.73;0.80;;;;;;;8.00;100.00;95686.94;1027980;28;20015;-72
2020/12/24 01:27:47;;;;;;;1.33;0.70;;;;;;;8.00;100.00;95686.94;1023936;29;20126;-73
2020/12/24 01:28:18;;;;;;;1.45;0.65;;;;;;;8.01;100.00;95687.75;1020076;29;20096;-72
2020/12/24 01:28:49;;;;;;;1.02;0.63;;;;;;;8.00;100.00;95684.28;1020170;29;20043;-72
2020/12/24 01:29:20;;;;;;;2.30;0.70;;;;;;;7.93;100.00;95670.09;1019963;29;20114;-73
2020/12/24 01:29:50;;;;;;;0.73;0.50;;;;;;;7.99;100.00;95689.75;1023900;29;20030;-72
2020/12/24 01:30:21;;;;;;;1.83;0.50;;;;;;;7.95;100.00;95683.13;1020041;29;20047;-72
2020/12/24 01:30:52;;;;;;;1.73;0.60;;;;;;;7.96;100.00;95688.28;1024188;29;20023;-72
2020/12/24 01:31:23;;;;;;;1.42;0.50;;;;;;;7.97;100.00;95686.44;1027889;28;20023;-73
2020/12/24 01:31:54;;;;;;;1.45;0.60;;;;;;;7.96;100.00;95685.63;1024017;29;20361;-73
2020/12/24 01:32:25;;;;;;;2.33;0.85;;;;;;;7.94;100.00;95671.72;1020010;29;20465;-73
2020/12/24 01:32:55;;;;;;;1.50;0.65;;;;;;;7.97;100.00;95681.97;1023959;29;20504;-72
2020/12/24 01:33:27;;;;;;;2.47;0.70;;;;;;;7.95;100.00;95683.13;1023958;29;20036;-73
2020/12/24 01:33:58;;;;;;;4.07;0.82;;;;;;;7.90;100.00;95676.50;1023828;29;20082;-72
2020/12/24 01:34:29;;;;;;;2.35;0.70;;;;;;;7.98;100.00;95682.81;1024001;29;20364;-72
2020/12/24 01:35:00;;;;;;;1.13;0.55;;;;;;;7.96;100.00;95688.28;1023974;29;20198;-73
2020/12/24 01:35:31;;;;;;;1.48;0.90;;;;;;;7.96;100.00;95688.28;1019981;29;20140;-73
2020/12/24 01:36:02;;;;;;;1.95;0.82;;;;;;;7.98;100.00;95688.09;1023799;29;20034;-73
2020/12/24 01:36:32;;;;;;;1.70;0.80;;;;;;;7.96;100.00;95696.19;1032134;28;20050;-72
2020/12/24 01:37:03;;;;;;;1.85;0.80;;;;;;;7.95;100.00;95689.25;1028027;28;20513;-72
2020/12/24 01:37:34;;;;;;;1.80;0.63;;;;;;;7.95;100.00;95683.13;1027969;28;20059;-73
2020/12/24 01:38:05;;;;;;;1.67;0.98;;;;;;;8.00;100.00;95696.69;1027894;28;20019;-72
2020/12/24 01:38:39;;;;;;;1.98;0.70;;;;;;;8.01;100.00;95688.59;1031950;28;20113;-72
2020/12/24 01:39:09;;;;;;;1.08;0.77;;;;;;;8.01;100.00;95683.31;1027896;28;20410;-72
2020/12/24 01:39:40;;;;;;;1.85;0.80;;;;;;;7.99;100.00;95687.91;1027909;28;20023;-72
2020/12/24 01:40:11;;;;;;;1.00;0.50;;;;;;;7.94;100.00;95687.59;1031788;28;20033;-73
2020/12/24 01:40:41;;;;;;;1.15;0.65;;;;;;;7.92;100.00;95694.84;1023961;29;20074;-73
2020/12/24 01:41:12;;;;;;;1.60;0.60;;;;;;;7.93;100.00;95681.47;1023871;29;20102;-72
2020/12/24 01:41:43;;;;;;;3.67;0.73;;;;;;;7.91;100.00;95674.72;1023931;29;20046;-73
2020/12/24 01:42:14;;;;;;;1.45;0.80;;;;;;;7.95;100.00;95683.97;1027613;28;20105;-73
2020/12/24 01:42:47;;;;;;;3.00;0.77;;;;;;;7.99;100.00;95681.81;1023949;29;20084;-73
2020/12/24 01:43:18;;;;;;;2.70;0.88;;;;;;;8.00;100.00;95684.28;1024064;29;20117;-72
2020/12/24 01:43:49;;;;;;;1.35;0.70;;;;;;;7.90;100.00;95673.06;1027868;28;20137;-73
2020/12/24 01:44:20;;;;;;;1.80;0.80;;;;;;;7.91;100.00;95677.38;1023732;29;20134;-73
2020/12/24 01:44:51;;;;;;;1.80;0.70;;;;;;;7.97;100.00;95687.25;1023886;29;20061;-72
2020/12/24 01:45:22;;;;;;;1.48;0.82;;;;;;;7.85;100.00;95668.25;1023930;29;20394;-73
2020/12/24 01:45:53;;;;;;;2.35;0.90;;;;;;;7.95;100.00;95677.84;1023912;29;20476;-73
2020/12/24 01:46:25;;;;;;;3.85;0.77;;;;;;;7.98;100.00;95682.81;1027783;28;20105;-73
2020/12/24 01:46:55;;;;;;;3.28;0.60;;;;;;;7.98;100.00;95683.63;1028066;28;20037;-72
2020/12/24 01:47:26;;;;;;;2.45;0.98;;;;;;;7.97;100.00;95691.72;1023974;29;20026;-72
2020/12/24 01:47:57;;;;;;;2.53;0.80;;;;;;;7.89;100.00;95671.41;1023978;29;20031;-72
2020/12/24 01:48:28;;;;;;;2.40;0.50;;;;;;;7.96;100.00;95690.91;1023674;29;20101;-73
2020/12/24 01:48:58;;;;;;;1.75;0.70;;;;;;;7.96;100.00;95687.41;1023925;29;20031;-72
2020/12/24 01:49:29;;;;;;;2.63;0.65;;;;;;;7.87;100.00;95676.88;1023946;29;20361;-72
2020/12/24 01:50:00;;;;;;;1.15;0.85;;;;;;;7.95;100.00;95686.59;1019936;29;20453;-73
2020/12/24 01:50:31;;;;;;;3.05;0.60;;;;;;;7.85;100.00;95678.00;1023760;29;20023;-73
2020/12/24 01:51:02;;;;;;;1.38;0.80;;;;;;;7.93;100.00;95691.22;1019992;29;20020;-72
2020/12/24 01:51:33;;;;;;;1.05;0.60;;;;;;;7.85;100.00;95672.72;1024056;29;20012;-73
2020/12/24 01:52:04;;;;;;;1.75;0.60;;;;;;;7.91;100.00;95687.94;1019992;29;20107;-72
2020/12/24 01:52:37;;;;;;;4.68;0.70;;;;;;;7.91;100.00;95688.75;1023648;29;20078;-73
2020/12/24 01:53:08;;;;;;;2.03;0.90;;;;;;;7.92;100.00;95684.28;1023912;29;20023;-72
2020/12/24 01:53:38;;;;;;;2.22;0.65;;;;;;;7.94;100.00;95682.28;1028032;28;20102;-72
2020/12/24 01:54:09;;;;;;;2.88;0.80;;;;;;;7.95;100.00;95675.22;1027951;28;20455;-72
2020/12/24 01:54:40;;;;;;;1.92;0.60;;;;;;;7.94;100.00;95677.00;1027755;28;20361;-73
2020/12/24 01:55:11;;;;;;;3.65;1.27;;;;;;;7.96;100.00;95684.78;1023938;29;20046;-73
2020/12/24 01:55:42;;;;;;;3.97;0.80;;;;;;;7.97;100.00;95681.16;1023958;29;20030;-73
2020/12/24 01:56:12;;;;;;;1.90;0.90;;;;;;;7.95;100.00;95683.13;1028013;28;20469;-72
2020/12/24 01:56:43;;;;;;;1.63;0.80;;;;;;;7.90;100.00;95686.28;1023735;29;20030;-73
2020/12/24 01:57:14;;;;;;;1.45;0.63;;;;;;;7.93;100.00;95688.59;1027851;28;20069;-72
2020/12/24 01:57:45;;;;;;;1.77;0.90;;;;;;;7.90;100.00;95679.16;1027999;28;20462;-73
2020/12/24 01:58:16;;;;;;;3.45;0.77;;;;;;;7.92;100.00;95684.28;1015996;29;20432;-73
2020/12/24 01:58:47;;;;;;;1.92;0.70;;;;;;;7.80;100.00;95670.56;1027730;28;20102;-72
2020/12/24 01:59:18;;;;;;;2.53;0.70;;;;;;;7.90;100.00;95678.34;1023933;29;20062;-72
2020/12/24 01:59:49;;;;;;;2.28;0.80;;;;;;;7.84;100.00;95679.84;1016059;29;20056;-73
2020/12/24 02:00:20;;;;;;;1.67;0.70;;;;;;;7.63;100.00;95651.25;1027946;28;20458;-72
2020/12/24 02:00:51;;;;;;;1.65;0.75;;;;;;;7.89;100.00;95684.63;1027620;28;20030;-73
2020/12/24 02:01:22;;;;;;;2.58;0.77;;;;;;;7.88;100.00;95678.50;1027838;28;20555;-72
2020/12/24 02:01:53;;;;;;;2.72;0.80;;;;;;;7.84;100.00;95679.03;1019892;29;20027;-72
2020/12/24 02:02:23;;;;;;;1.83;0.60;;;;;;;7.92;100.00;95689.56;1027793;28;20073;-73
2020/12/24 02:02:54;;;;;;;3.67;0.68;;;;;;;7.92;100.00;95689.56;1027230;28;20031;-73
2020/12/24 02:03:25;;;;;;;3.42;0.90;;;;;;;7.93;100.00;95683.31;1019980;29;20579;-72
2020/12/24 02:03:56;;;;;;;2.03;0.90;;;;;;;7.89;100.00;95682.00;1031828;28;20097;-72
2020/12/24 02:04:27;;;;;;;3.40;0.80;;;;;;;7.91;100.00;95680.00;1027994;28;20022;-72
2020/12/24 02:04:58;;;;;;;3.60;0.70;;;;;;;7.95;100.00;95688.44;1023742;28;20179;-73
2020/12/24 02:05:28;;;;;;;2.22;0.80;;;;;;;7.93;100.00;95689.41;1031801;28;20029;-73
2020/12/24 02:05:59;;;;;;;3.85;0.80;;;;;;;7.93;100.00;95685.94;1023864;29;20034;-73
2020/12/24 02:06:30;;;;;;;2.35;1.02;;;;;;;7.93;100.00;95688.59;1023888;29;20025;-73
2020/12/24 02:07:01;;;;;;;3.22;0.77;;;;;;;7.91;100.00;95688.75;1023785;28;20122;-73
2020/12/24 02:07:31;;;;;;;3.17;1.02;;;;;;;7.92;100.00;95681.63;1031388;28;20439;-72
2020/12/24 02:08:02;;;;;;;1.42;0.80;;;;;;;7.93;100.00;95681.47;1031699;28;20026;-72
2020/12/24 02:08:33;;;;;;;1.42;0.60;;;;;;;7.94;100.00;95677.00;1023918;29;20026;-73
2020/12/24 02:09:04;;;;;;;2.67;0.60;;;;;;;7.93;100.00;95680.66;1027708;28;20027;-72
2020/12/24 02:09:34;;;;;;;2.85;0.60;;;;;;;7.93;100.00;95678.00;1023844;29;20027;-72
2020/12/24 02:10:05;;;;;;;2.05;0.80;;;;;;;7.92;100.00;95677.19;1023791;28;20389;-72
2020/12/24 02:10:36;;;;;;;2.92;0.85;;;;;;;7.88;100.00;95656.53;1023905;29;20045;-72
2020/12/24 02:11:07;;;;;;;2.88;1.00;;;;;;;7.95;100.00;95668.09;1023811;29;20027;-73
2020/12/24 02:11:39;;;;;;;1.00;0.70;;;;;;;7.96;100.00;95669.75;1023744;29;20047;-73
2020/12/24 02:12:09;;;;;;;3.25;0.90;;;;;;;7.92;100.00;95665.78;1027739;28;20475;-73
2020/12/24 02:12:40;;;;;;;2.85;0.60;;;;;;;7.87;100.00;95670.72;1019963;29;20059;-72
2020/12/24 02:13:11;;;;;;;2.75;0.73;;;;;;;7.86;100.00;95677.03;1019907;29;20019;-73
2020/12/24 02:13:41;;;;;;;4.32;0.68;;;;;;;7.80;100.00;95667.91;1027815;28;20161;-73
2020/12/24 02:14:12;;;;;;;2.85;0.80;;;;;;;7.85;100.00;95668.25;1023853;29;20499;-72
2020/12/24 02:14:43;;;;;;;2.25;0.93;;;;;;;7.87;100.00;95678.66;1027952;28;20026;-72
2020/12/24 02:15:14;;;;;;;2.58;0.70;;;;;;;7.85;100.00;95670.91;1031765;28;20053;-74
2020/12/24 02:15:45;;;;;;;4.97;1.13;;;;;;;7.83;100.00;95670.25;1023777;29;20086;-72
2020/12/24 02:16:15;;;;;;;3.42;0.80;;;;;;;7.85;100.00;95668.25;1027847;28;20555;-73
2020/12/24 02:16:46;;;;;;;2.47;1.10;;;;;;;7.88;100.00;95672.41;1027969;28;20134;-72
2020/12/24 02:17:17;;;;;;;2.47;1.10;;;;;;;7.90;100.00;95673.06;1023778;29;20042;-73
2020/12/24 02:17:47;;;;;;;4.10;0.70;;;;;;;7.84;100.00;95674.53;1027653;28;20097;-72
2020/12/24 02:18:20;;;;;;;1.63;0.80;;;;;;;7.88;100.00;95677.69;1028043;28;20018;-72
2020/12/24 02:18:51;;;;;;;2.30;0.73;;;;;;;7.87;100.00;95673.38;1028295;28;20060;-73
2020/12/24 02:19:22;;;;;;;1.95;0.88;;;;;;;7.86;100.00;95667.28;1027904;28;20027;-73
2020/12/24 02:19:53;;;;;;;2.33;0.80;;;;;;;7.91;100.00;95669.44;1023917;29;20051;-73
2020/12/24 02:20:23;;;;;;;1.38;0.77;;;;;;;7.83;100.00;95664.13;1032116;28;20054;-73
2020/12/24 02:20:54;;;;;;;2.05;0.80;;;;;;;7.88;100.00;95673.22;1028040;28;20054;-73
2020/12/24 02:21:25;;;;;;;2.05;0.50;;;;;;;7.90;100.00;95670.41;1027893;28;20046;-73
2020/12/24 02:21:57;;;;;;;2.35;0.95;;;;;;;7.90;100.00;95671.22;1024083;29;20027;-72
2020/12/24 02:22:28;;;;;;;4.15;1.10;;;;;;;7.91;100.00;95664.16;1032310;28;20506;-73
2020/12/24 02:22:59;;;;;;;1.27;0.75;;;;;;;7.85;100.00;95655.03;1024165;29;20046;-72
2020/12/24 02:23:29;;;;;;;2.20;0.63;;;;;;;7.91;100.00;95661.50;1031944;28;20525;-74
2020/12/24 02:24:00;;;;;;;1.85;0.65;;;;;;;7.88;100.00;95665.28;1024036;29;20131;-73
2020/12/24 02:24:31;;;;;;;3.08;0.70;;;;;;;7.91;100.00;95659.66;1020230;29;20032;-73
2020/12/24 02:25:02;;;;;;;2.83;0.70;;;;;;;7.86;100.00;95666.47;1028188;28;20570;-73
2020/12/24 02:25:33;;;;;;;3.03;0.70;;;;;;;7.87;100.00;95662.81;1024149;29;20023;-73